createdAt,value
2023-01-15T00:00:53.275Z,986.72
2023-01-15T00:01:53.261Z,986.69
2023-01-15T00:02:53.351Z,986.66
2023-01-15T00:03:53.296Z,986.67
2023-01-15T00:04:53.224Z,986.60
2023-01-15T00:05:53.203Z,986.55
2023-01-15T00:06:53.201Z,986.55
2023-01-15T00:07:53.190Z,986.52
2023-01-15T00:08:53.162Z,986.55
2023-01-15T00:09:53.169Z,986.54
2023-01-15T00:10:53.140Z,986.37
2023-01-15T00:11:53.127Z,986.50
2023-01-15T00:12:53.159Z,986.45
2023-01-15T00:13:53.113Z,986.42
2023-01-15T00:14:53.102Z,986.45
2023-01-15T00:15:53.134Z,986.44
2023-01-15T00:16:53.064Z,986.46
2023-01-15T00:17:53.079Z,986.46
2023-01-15T00:18:53.035Z,986.41
2023-01-15T00:19:53.027Z,986.38
2023-01-15T00:20:53.011Z,986.36
2023-01-15T00:21:53.001Z,986.38
2023-01-15T00:22:53.007Z,986.40
2023-01-15T00:23:52.986Z,986.28
2023-01-15T00:24:52.965Z,986.42
2023-01-15T00:25:52.949Z,986.34
2023-01-15T00:26:52.932Z,986.29
2023-01-15T00:27:52.939Z,986.29
2023-01-15T00:28:52.912Z,986.34
2023-01-15T00:29:52.905Z,986.36
2023-01-15T00:30:52.886Z,986.39
2023-01-15T00:31:52.878Z,986.23
2023-01-15T00:32:52.869Z,986.22
2023-01-15T00:33:52.851Z,986.17
2023-01-15T00:34:52.840Z,986.13
2023-01-15T00:35:52.825Z,986.14
2023-01-15T00:36:52.810Z,986.17
2023-01-15T00:37:52.815Z,986.09
2023-01-15T00:38:52.791Z,986.13
2023-01-15T00:39:52.785Z,986.08
2023-01-15T00:40:52.760Z,986.11
2023-01-15T00:41:52.757Z,986.06
2023-01-15T00:42:54.269Z,985.99
2023-01-15T00:43:52.725Z,985.96
2023-01-15T00:44:52.714Z,986.01
2023-01-15T00:45:52.692Z,985.97
2023-01-15T00:46:52.691Z,986.04
2023-01-15T00:47:52.685Z,985.98
2023-01-15T00:48:52.654Z,985.94
2023-01-15T00:49:52.646Z,986.01
2023-01-15T00:50:52.629Z,986.01
2023-01-15T00:51:52.621Z,985.96
2023-01-15T00:52:52.621Z,985.94
2023-01-15T00:53:52.593Z,985.96
2023-01-15T00:54:52.625Z,985.95
2023-01-15T00:55:52.564Z,985.92
2023-01-15T00:56:52.549Z,986.03
2023-01-15T00:57:52.561Z,986.02
2023-01-15T00:58:52.529Z,985.97
2023-01-15T00:59:52.513Z,985.91
2023-01-15T01:00:52.536Z,985.98
2023-01-15T01:01:52.697Z,986.04
2023-01-15T01:02:52.493Z,985.99
2023-01-15T01:03:52.477Z,986.06
2023-01-15T01:04:52.450Z,985.98
2023-01-15T01:05:52.442Z,986.03
2023-01-15T01:06:52.427Z,985.97
2023-01-15T01:07:52.445Z,986.00
2023-01-15T01:08:52.411Z,985.98
2023-01-15T01:09:52.389Z,985.94
2023-01-15T01:10:52.380Z,985.95
2023-01-15T01:11:52.365Z,985.90
2023-01-15T01:12:52.348Z,985.85
2023-01-15T01:13:52.353Z,985.87
2023-01-15T01:14:52.332Z,985.78
2023-01-15T01:15:52.367Z,985.85
2023-01-15T01:16:52.297Z,985.89
2023-01-15T01:17:52.287Z,985.85
2023-01-15T01:18:52.294Z,985.89
2023-01-15T01:19:52.268Z,985.86
2023-01-15T01:20:52.265Z,985.89
2023-01-15T01:21:52.239Z,985.92
2023-01-15T01:22:52.234Z,985.90
2023-01-15T01:23:52.251Z,985.96
2023-01-15T01:24:52.201Z,985.96
2023-01-15T01:25:52.183Z,985.91
2023-01-15T01:26:54.329Z,985.95
2023-01-15T01:27:52.164Z,986.02
2023-01-15T01:28:52.163Z,986.01
2023-01-15T01:29:52.140Z,986.03
2023-01-15T01:30:52.124Z,985.98
2023-01-15T01:31:52.140Z,985.90
2023-01-15T01:32:52.102Z,985.91
2023-01-15T01:33:52.104Z,986.01
2023-01-15T01:34:52.068Z,985.96
2023-01-15T01:35:52.081Z,986.03
2023-01-15T01:36:52.057Z,985.94
2023-01-15T01:37:52.035Z,986.00
2023-01-15T01:38:52.037Z,986.00
2023-01-15T01:39:52.010Z,985.98
2023-01-15T01:40:51.994Z,985.95
2023-01-15T01:41:51.982Z,986.02
2023-01-15T01:42:51.975Z,985.94
2023-01-15T01:43:53.995Z,985.90
2023-01-15T01:44:51.941Z,985.97
2023-01-15T01:45:51.983Z,986.02
2023-01-15T01:46:51.929Z,985.91
2023-01-15T01:47:51.905Z,985.96
2023-01-15T01:48:51.903Z,985.92
2023-01-15T01:49:51.883Z,985.87
2023-01-15T01:50:51.872Z,985.96
2023-01-15T01:51:51.853Z,985.94
2023-01-15T01:52:51.847Z,985.99
2023-01-15T01:53:51.847Z,985.94
2023-01-15T01:54:51.816Z,985.96
2023-01-15T01:55:52.829Z,985.90
2023-01-15T01:56:51.796Z,985.98
2023-01-15T01:57:51.791Z,985.90
2023-01-15T01:58:51.775Z,985.90
2023-01-15T01:59:51.756Z,986.01
2023-01-15T02:00:51.784Z,985.97
2023-01-15T02:01:51.787Z,985.99
2023-01-15T02:02:51.717Z,986.02
2023-01-15T02:03:51.719Z,986.05
2023-01-15T02:04:51.690Z,986.06
2023-01-15T02:05:51.683Z,986.08
2023-01-15T02:06:51.669Z,986.05
2023-01-15T02:07:51.653Z,986.03
2023-01-15T02:08:51.636Z,986.04
2023-01-15T02:09:51.642Z,986.02
2023-01-15T02:10:51.611Z,985.98
2023-01-15T02:11:51.603Z,986.02
2023-01-15T02:12:51.591Z,986.04
2023-01-15T02:13:51.577Z,986.08
2023-01-15T02:14:51.587Z,986.18
2023-01-15T02:15:51.555Z,986.31
2023-01-15T02:16:51.537Z,986.38
2023-01-15T02:17:51.529Z,986.50
2023-01-15T02:18:51.525Z,986.51
2023-01-15T02:19:51.523Z,986.50
2023-01-15T02:20:51.489Z,986.50
2023-01-15T02:21:51.474Z,986.47
2023-01-15T02:22:51.469Z,986.48
2023-01-15T02:23:51.452Z,986.49
2023-01-15T02:24:51.467Z,986.47
2023-01-15T02:25:51.419Z,986.54
2023-01-15T02:26:51.407Z,986.55
2023-01-15T02:27:51.409Z,986.53
2023-01-15T02:28:51.397Z,986.48
2023-01-15T02:29:51.391Z,986.46
2023-01-15T02:30:51.359Z,986.53
2023-01-15T02:31:51.416Z,986.49
2023-01-15T02:32:51.336Z,986.54
2023-01-15T02:33:51.323Z,986.47
2023-01-15T02:34:51.320Z,986.49
2023-01-15T02:35:51.292Z,986.51
2023-01-15T02:36:51.279Z,986.45
2023-01-15T02:37:51.284Z,986.50
2023-01-15T02:38:51.260Z,986.44
2023-01-15T02:39:51.267Z,986.47
2023-01-15T02:40:51.230Z,986.47
2023-01-15T02:41:51.215Z,986.49
2023-01-15T02:42:51.210Z,986.51
2023-01-15T02:43:51.191Z,986.52
2023-01-15T02:44:51.194Z,986.53
2023-01-15T02:45:51.186Z,986.62
2023-01-15T02:46:51.153Z,986.56
2023-01-15T02:47:51.136Z,986.61
2023-01-15T02:48:51.125Z,986.56
2023-01-15T02:49:51.126Z,986.61
2023-01-15T02:50:51.102Z,986.70
2023-01-15T02:51:51.117Z,986.82
2023-01-15T02:52:51.089Z,986.83
2023-01-15T02:53:51.061Z,986.81
2023-01-15T02:54:51.071Z,986.75
2023-01-15T02:55:51.049Z,986.71
2023-01-15T02:56:51.028Z,986.88
2023-01-15T02:57:51.012Z,986.87
2023-01-15T02:58:51.009Z,986.92
2023-01-15T02:59:51.008Z,986.86
2023-01-15T03:00:51.073Z,986.86
2023-01-15T03:01:51.199Z,986.87
2023-01-15T03:02:50.999Z,986.91
2023-01-15T03:03:50.961Z,986.97
2023-01-15T03:04:50.938Z,987.00
2023-01-15T03:05:50.915Z,987.00
2023-01-15T03:06:50.896Z,987.10
2023-01-15T03:07:50.897Z,987.10
2023-01-15T03:08:50.876Z,987.08
2023-01-15T03:09:50.876Z,987.13
2023-01-15T03:10:50.851Z,987.09
2023-01-15T03:11:50.828Z,987.14
2023-01-15T03:12:50.813Z,987.12
2023-01-15T03:13:50.809Z,987.15
2023-01-15T03:14:50.808Z,987.13
2023-01-15T03:15:50.776Z,987.05
2023-01-15T03:16:50.801Z,987.18
2023-01-15T03:17:50.769Z,987.22
2023-01-15T03:18:50.738Z,987.26
2023-01-15T03:19:50.752Z,987.23
2023-01-15T03:20:50.716Z,987.25
2023-01-15T03:21:50.703Z,987.30
2023-01-15T03:22:50.693Z,987.26
2023-01-15T03:23:50.674Z,987.28
2023-01-15T03:24:50.693Z,987.20
2023-01-15T03:25:50.652Z,987.23
2023-01-15T03:26:50.643Z,987.25
2023-01-15T03:27:50.618Z,987.20
2023-01-15T03:28:50.610Z,987.20
2023-01-15T03:29:50.599Z,987.19
2023-01-15T03:30:50.620Z,987.22
2023-01-15T03:31:50.566Z,987.26
2023-01-15T03:32:50.563Z,987.26
2023-01-15T03:33:50.549Z,987.31
2023-01-15T03:34:50.531Z,987.26
2023-01-15T03:35:50.536Z,987.30
2023-01-15T03:36:50.506Z,987.35
2023-01-15T03:37:50.491Z,987.36
2023-01-15T03:38:50.476Z,987.31
2023-01-15T03:39:50.546Z,987.34
2023-01-15T03:40:50.470Z,987.33
2023-01-15T03:41:50.449Z,987.38
2023-01-15T03:42:50.426Z,987.34
2023-01-15T03:43:50.413Z,987.31
2023-01-15T03:44:50.402Z,987.34
2023-01-15T03:45:50.447Z,987.24
2023-01-15T03:46:50.381Z,987.30
2023-01-15T03:47:50.362Z,987.27
2023-01-15T03:48:50.349Z,987.33
2023-01-15T03:49:50.352Z,987.37
2023-01-15T03:50:50.340Z,987.41
2023-01-15T03:51:50.322Z,987.38
2023-01-15T03:52:50.304Z,987.40
2023-01-15T03:53:50.300Z,987.45
2023-01-15T03:54:50.272Z,987.45
2023-01-15T03:55:50.279Z,987.52
2023-01-15T03:56:50.244Z,987.52
2023-01-15T03:57:50.240Z,987.55
2023-01-15T03:58:50.217Z,987.53
2023-01-15T03:59:50.207Z,987.56
2023-01-15T04:00:50.216Z,987.52
2023-01-15T04:01:50.279Z,987.56
2023-01-15T04:02:50.165Z,987.57
2023-01-15T04:03:50.156Z,987.60
2023-01-15T04:04:50.148Z,987.56
2023-01-15T04:05:50.139Z,987.56
2023-01-15T04:06:50.123Z,987.65
2023-01-15T04:07:50.129Z,987.68
2023-01-15T04:08:50.090Z,987.66
2023-01-15T04:09:50.101Z,987.73
2023-01-15T04:10:50.075Z,987.75
2023-01-15T04:11:50.048Z,987.76
2023-01-15T04:12:50.038Z,987.72
2023-01-15T04:13:50.021Z,987.72
2023-01-15T04:14:50.014Z,987.73
2023-01-15T04:15:50.048Z,987.70
2023-01-15T04:16:49.989Z,987.69
2023-01-15T04:17:49.969Z,987.70
2023-01-15T04:18:49.959Z,987.68
2023-01-15T04:19:49.947Z,987.69
2023-01-15T04:20:49.952Z,987.68
2023-01-15T04:21:49.922Z,987.77
2023-01-15T04:22:49.908Z,987.80
2023-01-15T04:23:49.899Z,987.91
2023-01-15T04:24:49.881Z,987.89
2023-01-15T04:25:49.894Z,987.94
2023-01-15T04:26:49.862Z,987.95
2023-01-15T04:27:49.848Z,987.96
2023-01-15T04:28:49.831Z,987.96
2023-01-15T04:29:49.815Z,987.95
2023-01-15T04:30:49.874Z,987.88
2023-01-15T04:31:49.794Z,987.92
2023-01-15T04:32:49.785Z,987.97
2023-01-15T04:33:49.764Z,988.03
2023-01-15T04:34:49.766Z,988.02
2023-01-15T04:35:49.755Z,988.02
2023-01-15T04:36:49.734Z,988.03
2023-01-15T04:37:49.735Z,988.13
2023-01-15T04:38:49.706Z,988.16
2023-01-15T04:39:49.687Z,988.16
2023-01-15T04:40:49.691Z,988.20
2023-01-15T04:41:49.680Z,988.26
2023-01-15T04:42:49.656Z,988.25
2023-01-15T04:43:49.639Z,988.25
2023-01-15T04:44:49.630Z,988.24
2023-01-15T04:45:49.640Z,988.26
2023-01-15T04:46:49.601Z,988.31
2023-01-15T04:47:49.596Z,988.23
2023-01-15T04:48:49.577Z,988.31
2023-01-15T04:49:49.565Z,988.22
2023-01-15T04:50:49.552Z,988.24
2023-01-15T04:51:49.549Z,988.31
2023-01-15T04:52:49.525Z,988.33
2023-01-15T04:53:49.514Z,988.35
2023-01-15T04:54:49.496Z,988.40
2023-01-15T04:55:49.485Z,988.40
2023-01-15T04:56:49.508Z,988.40
2023-01-15T04:57:49.456Z,988.41
2023-01-15T04:58:49.452Z,988.26
2023-01-15T04:59:49.432Z,988.24
2023-01-15T05:00:49.419Z,988.17
2023-01-15T05:02:02.559Z,988.17
2023-01-15T05:02:49.494Z,988.20
2023-01-15T05:03:49.380Z,988.33
2023-01-15T05:04:49.415Z,988.38
2023-01-15T05:05:49.355Z,988.46
2023-01-15T05:06:49.362Z,988.49
2023-01-15T05:07:49.330Z,988.57
2023-01-15T05:08:49.319Z,988.57
2023-01-15T05:09:49.301Z,988.58
2023-01-15T05:10:49.303Z,988.54
2023-01-15T05:11:49.290Z,988.60
2023-01-15T05:12:49.265Z,988.59
2023-01-15T05:13:49.259Z,988.55
2023-01-15T05:14:49.251Z,988.54
2023-01-15T05:15:49.278Z,988.53
2023-01-15T05:16:49.238Z,988.47
2023-01-15T05:17:49.211Z,988.46
2023-01-15T05:18:49.192Z,988.45
2023-01-15T05:19:49.179Z,988.50
2023-01-15T05:20:49.163Z,988.46
2023-01-15T05:21:49.180Z,988.40
2023-01-15T05:22:49.148Z,988.49
2023-01-15T05:23:49.130Z,988.45
2023-01-15T05:24:49.121Z,988.42
2023-01-15T05:25:49.099Z,988.39
2023-01-15T05:26:49.115Z,988.36
2023-01-15T05:27:49.076Z,988.42
2023-01-15T05:28:49.130Z,988.40
2023-01-15T05:29:49.047Z,988.41
2023-01-15T05:30:49.100Z,988.43
2023-01-15T05:31:49.039Z,988.41
2023-01-15T05:32:49.006Z,988.44
2023-01-15T05:33:49.034Z,988.43
2023-01-15T05:34:49.006Z,988.45
2023-01-15T05:35:48.966Z,988.43
2023-01-15T05:36:48.989Z,988.44
2023-01-15T05:37:48.972Z,988.44
2023-01-15T05:38:48.935Z,988.50
2023-01-15T05:39:48.931Z,988.49
2023-01-15T05:40:48.913Z,988.50
2023-01-15T05:41:48.984Z,988.54
2023-01-15T05:42:48.899Z,988.57
2023-01-15T05:43:48.879Z,988.55
2023-01-15T05:44:48.865Z,988.61
2023-01-15T05:45:48.840Z,988.66
2023-01-15T05:46:48.832Z,988.73
2023-01-15T05:47:48.852Z,988.85
2023-01-15T05:48:48.806Z,988.87
2023-01-15T05:49:48.800Z,988.99
2023-01-15T05:50:48.781Z,988.98
2023-01-15T05:51:48.781Z,988.94
2023-01-15T05:52:48.791Z,988.92
2023-01-15T05:53:48.749Z,988.88
2023-01-15T05:54:48.739Z,988.91
2023-01-15T05:55:48.714Z,988.87
2023-01-15T05:56:48.710Z,988.91
2023-01-15T05:57:48.716Z,988.86
2023-01-15T05:58:48.678Z,988.90
2023-01-15T05:59:48.660Z,988.91
2023-01-15T06:00:48.655Z,988.86
2023-01-15T06:01:48.662Z,988.88
2023-01-15T06:02:48.710Z,988.97
2023-01-15T06:03:48.670Z,988.98
2023-01-15T06:04:48.606Z,989.01
2023-01-15T06:05:48.585Z,988.96
2023-01-15T06:06:48.575Z,989.02
2023-01-15T06:07:48.588Z,988.95
2023-01-15T06:08:48.551Z,988.90
2023-01-15T06:09:48.549Z,988.94
2023-01-15T06:10:48.531Z,988.96
2023-01-15T06:11:48.516Z,988.97
2023-01-15T06:12:48.528Z,988.94
2023-01-15T06:13:48.492Z,988.98
2023-01-15T06:14:48.486Z,988.98
2023-01-15T06:15:48.512Z,988.89
2023-01-15T06:16:48.449Z,988.85
2023-01-15T06:17:48.447Z,988.80
2023-01-15T06:18:48.424Z,988.81
2023-01-15T06:19:48.405Z,988.88
2023-01-15T06:20:48.396Z,988.83
2023-01-15T06:21:48.379Z,988.87
2023-01-15T06:22:48.382Z,988.93
2023-01-15T06:23:48.356Z,989.02
2023-01-15T06:24:48.346Z,988.94
2023-01-15T06:25:48.339Z,988.96
2023-01-15T06:26:48.316Z,988.96
2023-01-15T06:27:48.325Z,988.96
2023-01-15T06:28:48.297Z,988.97
2023-01-15T06:29:48.287Z,988.85
2023-01-15T06:30:48.271Z,988.90
2023-01-15T06:31:48.389Z,988.88
2023-01-15T06:32:48.257Z,988.88
2023-01-15T06:33:48.238Z,988.92
2023-01-15T06:34:48.218Z,988.94
2023-01-15T06:35:48.198Z,988.91
2023-01-15T06:36:48.194Z,988.93
2023-01-15T06:37:48.193Z,988.92
2023-01-15T06:38:48.169Z,988.91
2023-01-15T06:39:48.148Z,988.86
2023-01-15T06:40:48.140Z,988.81
2023-01-15T06:41:48.137Z,988.81
2023-01-15T06:42:48.123Z,988.91
2023-01-15T06:43:48.101Z,988.99
2023-01-15T06:44:48.089Z,989.03
2023-01-15T06:45:48.074Z,989.10
2023-01-15T06:46:48.090Z,989.14
2023-01-15T06:47:48.062Z,989.15
2023-01-15T06:48:48.037Z,989.14
2023-01-15T06:49:48.022Z,989.19
2023-01-15T06:50:48.014Z,989.26
2023-01-15T06:51:48.008Z,989.30
2023-01-15T06:52:48.006Z,989.40
2023-01-15T06:53:47.973Z,989.43
2023-01-15T06:54:47.965Z,989.38
2023-01-15T06:55:47.954Z,989.34
2023-01-15T06:56:47.932Z,989.35
2023-01-15T06:57:47.935Z,989.35
2023-01-15T06:58:47.917Z,989.40
2023-01-15T06:59:47.908Z,989.49
2023-01-15T07:00:47.921Z,989.47
2023-01-15T07:01:47.993Z,989.50
2023-01-15T07:02:47.883Z,989.50
2023-01-15T07:03:47.869Z,989.49
2023-01-15T07:04:47.988Z,989.51
2023-01-15T07:05:47.823Z,989.48
2023-01-15T07:06:47.806Z,989.44
2023-01-15T07:07:47.795Z,989.45
2023-01-15T07:08:47.791Z,989.42
2023-01-15T07:09:47.760Z,989.37
2023-01-15T07:10:47.750Z,989.38
2023-01-15T07:11:47.745Z,989.48
2023-01-15T07:12:47.730Z,989.52
2023-01-15T07:13:47.734Z,989.52
2023-01-15T07:14:47.697Z,989.55
2023-01-15T07:15:47.691Z,989.58
2023-01-15T07:16:47.683Z,989.59
2023-01-15T07:17:47.664Z,989.53
2023-01-15T07:18:47.664Z,989.50
2023-01-15T07:19:47.653Z,989.44
2023-01-15T07:20:47.626Z,989.46
2023-01-15T07:21:47.616Z,989.47
2023-01-15T07:22:47.596Z,989.46
2023-01-15T07:23:47.602Z,989.44
2023-01-15T07:24:47.572Z,989.43
2023-01-15T07:25:47.562Z,989.46
2023-01-15T07:26:47.546Z,989.46
2023-01-15T07:27:47.543Z,989.55
2023-01-15T07:28:47.533Z,989.53
2023-01-15T07:29:47.508Z,989.63
2023-01-15T07:30:47.494Z,989.62
2023-01-15T07:31:47.573Z,989.59
2023-01-15T07:32:47.464Z,989.59
2023-01-15T07:33:47.479Z,989.71
2023-01-15T07:34:47.439Z,989.73
2023-01-15T07:35:47.433Z,989.70
2023-01-15T07:36:48.704Z,989.81
2023-01-15T07:37:47.401Z,989.85
2023-01-15T07:38:47.407Z,989.87
2023-01-15T07:39:47.375Z,989.91
2023-01-15T07:40:47.365Z,989.91
2023-01-15T07:41:47.358Z,989.97
2023-01-15T07:42:47.342Z,989.99
2023-01-15T07:43:47.349Z,990.00
2023-01-15T07:44:47.308Z,990.05
2023-01-15T07:45:47.393Z,990.07
2023-01-15T07:46:47.280Z,990.04
2023-01-15T07:47:47.274Z,990.07
2023-01-15T07:48:47.275Z,990.05
2023-01-15T07:49:47.259Z,990.07
2023-01-15T07:50:47.229Z,990.08
2023-01-15T07:51:47.239Z,990.13
2023-01-15T07:52:47.212Z,990.14
2023-01-15T07:53:47.209Z,990.17
2023-01-15T07:54:47.186Z,990.14
2023-01-15T07:55:47.168Z,990.11
2023-01-15T07:56:47.170Z,990.15
2023-01-15T07:57:47.144Z,990.13
2023-01-15T07:58:47.148Z,990.11
2023-01-15T07:59:47.120Z,990.12
2023-01-15T08:00:47.158Z,990.14
2023-01-15T08:01:47.271Z,990.17
2023-01-15T08:02:47.080Z,990.16
2023-01-15T08:03:47.103Z,990.14
2023-01-15T08:04:47.059Z,990.15
2023-01-15T08:05:47.039Z,990.16
2023-01-15T08:06:47.126Z,990.23
2023-01-15T08:07:47.014Z,990.17
2023-01-15T08:08:46.999Z,990.14
2023-01-15T08:09:47.003Z,990.21
2023-01-15T08:10:46.978Z,990.24
2023-01-15T08:11:46.963Z,990.21
2023-01-15T08:12:46.940Z,990.19
2023-01-15T08:13:46.936Z,990.30
2023-01-15T08:14:46.933Z,990.24
2023-01-15T08:15:46.908Z,990.28
2023-01-15T08:16:46.905Z,990.26
2023-01-15T08:17:46.883Z,990.27
2023-01-15T08:18:46.871Z,990.37
2023-01-15T08:19:46.873Z,990.38
2023-01-15T08:20:47.343Z,990.41
2023-01-15T08:21:46.830Z,990.39
2023-01-15T08:22:46.811Z,990.40
2023-01-15T08:23:46.804Z,990.39
2023-01-15T08:24:46.807Z,990.43
2023-01-15T08:25:46.784Z,990.39
2023-01-15T08:26:46.757Z,990.39
2023-01-15T08:27:46.748Z,990.39
2023-01-15T08:28:46.736Z,990.47
2023-01-15T08:29:46.742Z,990.42
2023-01-15T08:30:46.707Z,990.46
2023-01-15T08:31:46.764Z,990.39
2023-01-15T08:32:46.691Z,990.43
2023-01-15T08:33:46.682Z,990.43
2023-01-15T08:34:46.687Z,990.45
2023-01-15T08:35:46.646Z,990.42
2023-01-15T08:36:46.627Z,990.48
2023-01-15T08:37:46.633Z,990.49
2023-01-15T08:38:46.609Z,990.56
2023-01-15T08:39:46.606Z,990.58
2023-01-15T08:40:46.582Z,990.53
2023-01-15T08:41:46.567Z,990.53
2023-01-15T08:42:46.551Z,990.46
2023-01-15T08:43:46.543Z,990.51
2023-01-15T08:44:46.544Z,990.51
2023-01-15T08:45:46.577Z,990.50
2023-01-15T08:46:46.505Z,990.59
2023-01-15T08:47:46.494Z,990.59
2023-01-15T08:48:46.476Z,990.49
2023-01-15T08:49:46.487Z,990.57
2023-01-15T08:50:46.448Z,990.55
2023-01-15T08:51:46.437Z,990.58
2023-01-15T08:52:46.426Z,990.54
2023-01-15T08:53:46.411Z,990.56
2023-01-15T08:54:46.415Z,990.62
2023-01-15T08:55:46.432Z,990.69
2023-01-15T08:56:46.372Z,990.66
2023-01-15T08:57:46.358Z,990.73
2023-01-15T08:58:46.347Z,990.71
2023-01-15T08:59:46.351Z,990.82
2023-01-15T09:00:46.411Z,990.78
2023-01-15T09:01:46.473Z,990.81
2023-01-15T09:02:48.161Z,990.83
2023-01-15T09:03:46.284Z,990.89
2023-01-15T09:04:46.341Z,990.86
2023-01-15T09:05:46.274Z,990.89
2023-01-15T09:06:46.240Z,990.92
2023-01-15T09:07:46.288Z,990.90
2023-01-15T09:08:46.226Z,990.92
2023-01-15T09:09:46.229Z,990.95
2023-01-15T09:10:46.187Z,990.87
2023-01-15T09:11:46.177Z,990.89
2023-01-15T09:12:46.162Z,990.89
2023-01-15T09:13:46.153Z,990.87
2023-01-15T09:14:56.732Z,990.92
2023-01-15T09:15:46.132Z,990.85
2023-01-15T09:16:46.116Z,990.86
2023-01-15T09:17:46.099Z,990.88
2023-01-15T09:18:46.093Z,990.98
2023-01-15T09:19:46.093Z,990.95
2023-01-15T09:20:46.076Z,990.95
2023-01-15T09:21:46.051Z,991.00
2023-01-15T09:22:46.039Z,990.97
2023-01-15T09:23:46.028Z,991.00
2023-01-15T09:24:46.015Z,991.03
2023-01-15T09:25:46.027Z,991.08
2023-01-15T09:26:45.993Z,991.00
2023-01-15T09:27:46.081Z,991.04
2023-01-15T09:28:45.967Z,991.08
2023-01-15T09:29:45.980Z,991.07
2023-01-15T09:30:46.014Z,991.07
2023-01-15T09:31:45.924Z,991.08
2023-01-15T09:32:45.905Z,991.07
2023-01-15T09:33:45.916Z,991.02
2023-01-15T09:34:45.896Z,991.09
2023-01-15T09:35:45.883Z,991.09
2023-01-15T09:36:45.869Z,991.12
2023-01-15T09:37:45.844Z,991.19
2023-01-15T09:38:45.841Z,991.13
2023-01-15T09:39:45.833Z,991.15
2023-01-15T09:40:45.823Z,991.20
2023-01-15T09:41:45.802Z,991.14
2023-01-15T09:42:45.804Z,991.21
2023-01-15T09:43:50.753Z,991.16
2023-01-15T09:44:46.852Z,991.18
2023-01-15T09:45:45.786Z,991.23
2023-01-15T09:46:45.725Z,991.22
2023-01-15T09:47:45.731Z,991.27
2023-01-15T09:48:45.699Z,991.27
2023-01-15T09:49:45.692Z,991.32
2023-01-15T09:50:45.695Z,991.33
2023-01-15T09:51:45.670Z,991.28
2023-01-15T09:52:45.651Z,991.30
2023-01-15T09:53:45.641Z,991.32
2023-01-15T09:54:45.623Z,991.37
2023-01-15T09:55:45.627Z,991.34
2023-01-15T09:56:45.610Z,991.35
2023-01-15T09:57:45.592Z,991.40
2023-01-15T09:58:45.582Z,991.40
2023-01-15T09:59:45.562Z,991.41
2023-01-15T10:00:45.558Z,991.38
2023-01-15T10:01:45.533Z,991.42
2023-01-15T10:02:45.527Z,991.49
2023-01-15T10:03:45.733Z,991.55
2023-01-15T10:04:45.497Z,991.53
2023-01-15T10:05:45.499Z,991.47
2023-01-15T10:06:45.478Z,991.50
2023-01-15T10:07:45.461Z,991.49
2023-01-15T10:08:45.447Z,991.44
2023-01-15T10:09:45.452Z,991.53
2023-01-15T10:10:45.439Z,991.53
2023-01-15T10:11:45.407Z,991.60
2023-01-15T10:12:45.391Z,991.58
2023-01-15T10:13:45.382Z,991.68
2023-01-15T10:14:45.368Z,991.68
2023-01-15T10:15:45.375Z,991.72
2023-01-15T10:16:45.346Z,991.69
2023-01-15T10:17:47.004Z,991.62
2023-01-15T10:18:45.318Z,991.58
2023-01-15T10:19:45.306Z,991.55
2023-01-15T10:20:45.306Z,991.55
2023-01-15T10:21:45.281Z,991.53
2023-01-15T10:22:45.268Z,991.43
2023-01-15T10:23:45.258Z,991.41
2023-01-15T10:24:45.240Z,991.47
2023-01-15T10:25:45.242Z,991.47
2023-01-15T10:26:45.221Z,991.50
2023-01-15T10:27:45.199Z,991.39
2023-01-15T10:28:45.187Z,991.37
2023-01-15T10:29:45.176Z,991.47
2023-01-15T10:30:45.207Z,991.43
2023-01-15T10:31:45.155Z,991.45
2023-01-15T10:32:57.079Z,991.40
2023-01-15T10:33:46.123Z,991.40
2023-01-15T10:34:45.111Z,991.51
2023-01-15T10:35:45.116Z,991.39
2023-01-15T10:36:45.085Z,991.36
2023-01-15T10:37:45.076Z,991.39
2023-01-15T10:38:45.057Z,991.46
2023-01-15T10:39:45.052Z,991.44
2023-01-15T10:40:45.057Z,991.43
2023-01-15T10:41:45.025Z,991.43
2023-01-15T10:42:45.013Z,991.34
2023-01-15T10:43:44.994Z,991.44
2023-01-15T10:44:44.984Z,991.41
2023-01-15T10:45:45.015Z,991.49
2023-01-15T10:46:44.963Z,991.55
2023-01-15T10:47:44.951Z,991.50
2023-01-15T10:48:44.939Z,991.46
2023-01-15T10:49:44.932Z,991.48
2023-01-15T10:50:44.919Z,991.53
2023-01-15T10:51:44.894Z,991.56
2023-01-15T10:52:45.017Z,991.51
2023-01-15T10:53:44.878Z,991.48
2023-01-15T10:54:44.858Z,991.50
2023-01-15T10:55:44.867Z,991.49
2023-01-15T10:56:44.838Z,991.54
2023-01-15T10:57:44.813Z,991.51
2023-01-15T10:58:45.575Z,991.53
2023-01-15T10:59:44.794Z,991.52
2023-01-15T11:00:44.780Z,991.49
2023-01-15T11:01:44.868Z,991.49
2023-01-15T11:02:44.843Z,991.49
2023-01-15T11:03:44.742Z,991.47
2023-01-15T11:04:45.723Z,991.45
2023-01-15T11:05:44.715Z,991.42
2023-01-15T11:06:44.723Z,991.46
2023-01-15T11:08:06.517Z,991.49
2023-01-15T11:09:11.805Z,991.42
2023-01-15T11:09:45.664Z,991.53
2023-01-15T11:10:44.655Z,991.42
2023-01-15T11:11:44.658Z,991.33
2023-01-15T11:12:44.640Z,991.47
2023-01-15T11:13:44.612Z,991.34
2023-01-15T11:14:44.612Z,991.43
2023-01-15T11:15:44.617Z,991.46
2023-01-15T11:16:44.643Z,991.50
2023-01-15T11:17:44.560Z,991.41
2023-01-15T11:18:44.547Z,991.39
2023-01-15T11:19:44.537Z,991.36
2023-01-15T11:20:44.530Z,991.44
2023-01-15T11:21:44.525Z,991.49
2023-01-15T11:22:45.070Z,991.46
2023-01-15T11:23:44.499Z,991.44
2023-01-15T11:24:44.471Z,991.51
2023-01-15T11:25:44.465Z,991.56
2023-01-15T11:26:44.461Z,991.54
2023-01-15T11:27:44.430Z,991.55
2023-01-15T11:28:44.418Z,991.66
2023-01-15T11:29:44.412Z,991.65
2023-01-15T11:30:44.463Z,991.73
2023-01-15T11:31:44.399Z,991.65
2023-01-15T11:32:44.378Z,991.62
2023-01-15T11:33:44.353Z,991.63
2023-01-15T11:34:44.343Z,991.62
2023-01-15T11:35:44.362Z,991.63
2023-01-15T11:36:44.366Z,991.57
2023-01-15T11:37:44.307Z,991.60
2023-01-15T11:38:44.293Z,991.57
2023-01-15T11:39:44.273Z,991.53
2023-01-15T11:40:44.265Z,991.62
2023-01-15T11:41:44.255Z,991.50
2023-01-15T11:42:44.258Z,991.46
2023-01-15T11:43:44.228Z,991.53
2023-01-15T11:44:44.220Z,991.46
2023-01-15T11:45:44.216Z,991.63
2023-01-15T11:46:44.208Z,991.66
2023-01-15T11:47:44.999Z,991.67
2023-01-15T11:48:44.169Z,991.67
2023-01-15T11:49:44.153Z,991.71
2023-01-15T11:50:44.141Z,991.58
2023-01-15T11:51:44.129Z,991.59
2023-01-15T11:52:44.127Z,991.69
2023-01-15T11:53:44.096Z,991.71
2023-01-15T11:54:44.084Z,991.79
2023-01-15T11:55:44.074Z,991.86
2023-01-15T11:56:44.066Z,991.80
2023-01-15T11:57:44.064Z,991.87
2023-01-15T11:58:44.041Z,991.74
2023-01-15T11:59:44.019Z,991.73
2023-01-15T12:00:44.007Z,991.63
2023-01-15T12:01:43.998Z,991.62
2023-01-15T12:02:43.998Z,991.64
2023-01-15T12:03:44.100Z,991.78
2023-01-15T12:04:45.449Z,991.81
2023-01-15T12:05:43.946Z,991.78
2023-01-15T12:06:43.933Z,991.72
2023-01-15T12:07:43.931Z,991.69
2023-01-15T12:08:43.910Z,991.77
2023-01-15T12:09:43.912Z,991.89
2023-01-15T12:10:43.880Z,991.94
2023-01-15T12:11:43.871Z,991.88
2023-01-15T12:12:43.871Z,991.93
2023-01-15T12:13:43.838Z,992.12
2023-01-15T12:14:43.837Z,992.11
2023-01-15T12:15:43.867Z,992.12
2023-01-15T12:16:43.807Z,992.06
2023-01-15T12:17:43.810Z,992.05
2023-01-15T12:18:43.780Z,991.88
2023-01-15T12:19:43.776Z,991.93
2023-01-15T12:20:43.749Z,991.95
2023-01-15T12:21:43.742Z,991.92
2023-01-15T12:22:43.755Z,991.85
2023-01-15T12:23:43.712Z,991.71
2023-01-15T12:24:43.716Z,991.74
2023-01-15T12:25:43.681Z,991.71
2023-01-15T12:26:43.669Z,991.74
2023-01-15T12:27:43.675Z,991.71
2023-01-15T12:28:43.642Z,991.61